Time;durP1;ratioP1;P1;durP2;ratioP2;P2;SDS_P1;SDS_P2;PMS_P1;PMS_P2;Temp;Humidity;BMP_temperature;BMP_pressure;BME280_temperature;BME280_humidity;BME280_pressure;Samples;Min_cycle;Max_cycle;Signal;HPM_P1;HPM_P2
2023/12/11 00:00:41;;;;;;;37.70;12.63;;;;;;;;;;10273090;28;20173;-79
2023/12/11 00:05:42;;;;;;;25.27;10.80;;;;;;;;;;10285543;28;20078;-84
2023/12/11 00:10:43;;;;;;;27.10;11.03;;;;;;;;;;10286416;28;20058;-80
2023/12/11 00:15:45;;;;;;;25.80;10.03;;;;;;;;;;10285598;28;20039;-80
2023/12/11 00:20:52;;;;;;;28.70;10.97;;;;;;;;;;10284788;28;20058;-80
2023/12/11 00:25:53;;;;;;;25.83;9.77;;;;;;;;;;10268050;28;20050;-80
2023/12/11 00:30:54;;;;;;;23.87;9.83;;;;;;;;;;10292538;28;20070;-82
2023/12/11 00:35:55;;;;;;;25.03;9.77;;;;;;;;;;10296963;28;20070;-83
2023/12/11 00:40:57;;;;;;;18.83;8.43;;;;;;;;;;10291394;28;20023;-84
2023/12/11 00:45:58;;;;;;;22.77;8.97;;;;;;;;;;10292206;28;20141;-80
2023/12/11 00:50:59;;;;;;;28.30;8.70;;;;;;;;;;10292364;28;20051;-82
2023/12/11 00:56:00;;;;;;;19.40;8.20;;;;;;;;;;10273268;28;20038;-84
2023/12/11 01:01:01;;;;;;;19.17;8.07;;;;;;;;;;10290400;28;20037;-81
2023/12/11 01:06:02;;;;;;;25.23;9.90;;;;;;;;;;10291346;28;20475;-80
2023/12/11 01:11:10;;;;;;;25.27;9.00;;;;;;;;;;10291362;28;20070;-80
2023/12/11 01:16:11;;;;;;;19.93;8.13;;;;;;;;;;10289911;28;20778;-83
2023/12/11 01:21:12;;;;;;;20.70;8.27;;;;;;;;;;10293869;28;20054;-80
2023/12/11 01:26:13;;;;;;;18.07;8.03;;;;;;;;;;10295966;28;20129;-80
2023/12/11 01:31:14;;;;;;;25.33;9.00;;;;;;;;;;10277766;28;20038;-82
2023/12/11 01:36:16;;;;;;;20.93;8.70;;;;;;;;;;10293535;28;20054;-82
2023/12/11 01:41:17;;;;;;;23.70;9.60;;;;;;;;;;10292231;28;20062;-79
2023/12/11 01:46:18;;;;;;;15.10;6.57;;;;;;;;;;10289850;28;20035;-82
2023/12/11 01:51:20;;;;;;;18.33;7.17;;;;;;;;;;10279105;28;20034;-80
2023/12/11 01:56:21;;;;;;;22.97;8.73;;;;;;;;;;10289148;28;20045;-80
2023/12/11 02:01:23;;;;;;;16.83;8.27;;;;;;;;;;10293671;28;20126;-80
2023/12/11 02:06:24;;;;;;;12.00;6.13;;;;;;;;;;10288664;28;20047;-80
2023/12/11 02:11:26;;;;;;;18.70;7.27;;;;;;;;;;10289060;28;20019;-81
2023/12/11 02:16:27;;;;;;;19.30;7.10;;;;;;;;;;10288952;28;20069;-80
2023/12/11 02:21:28;;;;;;;11.83;6.63;;;;;;;;;;10292298;28;20154;-81
2023/12/11 02:26:29;;;;;;;20.30;7.63;;;;;;;;;;10292176;28;20484;-80
2023/12/11 02:31:36;;;;;;;16.43;7.67;;;;;;;;;;10288764;28;20034;-80
2023/12/11 02:36:44;;;;;;;20.33;7.80;;;;;;;;;;10289213;28;20065;-80
2023/12/11 02:41:51;;;;;;;15.50;7.40;;;;;;;;;;10284236;28;20066;-80
2023/12/11 02:46:52;;;;;;;17.67;7.67;;;;;;;;;;10288045;28;20039;-83
2023/12/11 02:51:53;;;;;;;18.03;7.63;;;;;;;;;;10296305;28;20077;-80
2023/12/11 02:56:54;;;;;;;14.13;7.27;;;;;;;;;;10293089;28;20054;-82
2023/12/11 03:01:55;;;;;;;18.67;8.37;;;;;;;;;;10293675;28;20054;-80
2023/12/11 03:06:56;;;;;;;18.37;7.90;;;;;;;;;;10287721;28;20082;-80
2023/12/11 03:11:57;;;;;;;22.27;8.20;;;;;;;;;;10273707;28;20034;-80
2023/12/11 03:16:59;;;;;;;21.77;8.37;;;;;;;;;;10287076;28;20065;-80
2023/12/11 03:22:00;;;;;;;24.37;8.57;;;;;;;;;;10287592;28;20051;-81
2023/12/11 03:27:01;;;;;;;24.90;10.33;;;;;;;;;;10285059;28;20482;-82
2023/12/11 03:32:02;;;;;;;30.57;12.70;;;;;;;;;;10285905;28;20035;-80
2023/12/11 03:37:03;;;;;;;24.93;13.07;;;;;;;;;;10285015;28;20038;-83
2023/12/11 03:42:05;;;;;;;30.77;13.47;;;;;;;;;;10294023;28;20495;-83
2023/12/11 03:47:06;;;;;;;27.40;13.03;;;;;;;;;;10284548;28;20231;-83
2023/12/11 03:52:07;;;;;;;31.27;15.60;;;;;;;;;;10288185;28;20076;-80
2023/12/11 03:57:08;;;;;;;32.60;14.50;;;;;;;;;;10289013;28;20035;-79
2023/12/11 04:02:09;;;;;;;29.87;15.03;;;;;;;;;;10292362;28;20114;-81
2023/12/11 04:07:10;;;;;;;32.10;15.07;;;;;;;;;;10306767;28;20042;-82
2023/12/11 04:12:11;;;;;;;30.07;15.53;;;;;;;;;;10289214;28;20034;-81
2023/12/11 04:17:12;;;;;;;32.23;14.80;;;;;;;;;;10298886;28;20043;-80
2023/12/11 04:22:13;;;;;;;34.37;16.37;;;;;;;;;;10297445;28;20136;-80
2023/12/11 04:27:14;;;;;;;27.50;14.17;;;;;;;;;;10284131;28;20081;-80
2023/12/11 04:32:15;;;;;;;34.10;16.00;;;;;;;;;;10285648;28;20443;-81
2023/12/11 04:37:17;;;;;;;30.87;13.67;;;;;;;;;;10300665;28;20061;-84
2023/12/11 04:42:18;;;;;;;29.07;13.53;;;;;;;;;;10294806;28;20430;-82
2023/12/11 04:47:19;;;;;;;26.67;11.60;;;;;;;;;;10288543;28;20043;-80
2023/12/11 04:52:20;;;;;;;31.77;13.13;;;;;;;;;;10286661;28;20053;-85
2023/12/11 04:57:21;;;;;;;34.33;10.37;;;;;;;;;;10288539;28;20031;-80
2023/12/11 05:02:22;;;;;;;40.73;11.17;;;;;;;;;;10301149;28;20054;-81
2023/12/11 05:07:23;;;;;;;25.27;7.87;;;;;;;;;;10293274;28;20042;-79
2023/12/11 05:12:24;;;;;;;15.00;6.93;;;;;;;;;;10279658;28;20064;-84
2023/12/11 05:17:25;;;;;;;9.67;4.10;;;;;;;;;;10289736;28;20100;-85
2023/12/11 05:22:26;;;;;;;10.93;5.23;;;;;;;;;;10288009;28;20046;-83
2023/12/11 05:27:27;;;;;;;18.13;5.97;;;;;;;;;;10290762;28;20039;-84
2023/12/11 05:32:28;;;;;;;13.90;6.27;;;;;;;;;;10291127;28;20034;-84
2023/12/11 05:37:29;;;;;;;13.07;4.57;;;;;;;;;;10289996;28;20489;-84
2023/12/11 05:42:31;;;;;;;12.90;5.23;;;;;;;;;;10290595;28;20038;-84
2023/12/11 05:47:32;;;;;;;9.77;4.43;;;;;;;;;;10289886;28;20031;-85
2023/12/11 05:52:33;;;;;;;11.93;5.10;;;;;;;;;;10290178;28;20038;-85
2023/12/11 05:57:34;;;;;;;11.87;5.80;;;;;;;;;;10272188;28;20061;-87
2023/12/11 06:02:35;;;;;;;10.90;4.87;;;;;;;;;;10272308;28;20193;-87
2023/12/11 06:07:36;;;;;;;12.90;5.03;;;;;;;;;;10289697;28;20082;-85
2023/12/11 06:12:37;;;;;;;13.90;5.47;;;;;;;;;;10289197;28;20422;-87
2023/12/11 06:17:39;;;;;;;12.03;5.17;;;;;;;;;;10272011;28;20047;-88
2023/12/11 06:22:47;;;;;;;9.37;5.40;;;;;;;;;;10288127;28;20122;-86
2023/12/11 06:27:48;;;;;;;9.23;4.43;;;;;;;;;;10289091;28;20482;-86
2023/12/11 06:32:50;;;;;;;7.57;4.30;;;;;;;;;;10288050;28;20065;-86
2023/12/11 06:37:51;;;;;;;9.10;4.40;;;;;;;;;;10288217;28;20038;-86
2023/12/11 06:42:52;;;;;;;10.30;4.47;;;;;;;;;;10288207;28;20027;-86
2023/12/11 06:47:53;;;;;;;13.00;4.30;;;;;;;;;;10287624;28;20031;-87
2023/12/11 06:53:02;;;;;;;7.93;4.20;;;;;;;;;;10274958;28;20408;-87
2023/12/11 06:58:03;;;;;;;7.73;4.67;;;;;;;;;;10287178;28;20070;-88
2023/12/11 07:03:05;;;;;;;10.47;4.60;;;;;;;;;;10292365;28;20042;-86
2023/12/11 07:08:06;;;;;;;9.07;4.40;;;;;;;;;;10305218;28;20062;-86
2023/12/11 07:13:07;;;;;;;7.50;4.03;;;;;;;;;;10291448;28;20035;-86
2023/12/11 07:18:11;;;;;;;8.57;4.50;;;;;;;;;;10269812;28;20068;-85
2023/12/11 07:23:19;;;;;;;10.57;4.80;;;;;;;;;;10285763;28;20490;-87
2023/12/11 07:28:20;;;;;;;14.17;6.00;;;;;;;;;;10268706;28;20039;-87
2023/12/11 07:33:21;;;;;;;10.70;5.43;;;;;;;;;;10261585;28;20121;-85
2023/12/11 07:38:24;;;;;;;16.07;6.87;;;;;;;;;;10267177;28;20066;-86
2023/12/11 07:43:26;;;;;;;13.53;6.07;;;;;;;;;;10268460;28;20045;-86
2023/12/11 07:48:28;;;;;;;13.87;5.50;;;;;;;;;;10267104;28;20070;-86
2023/12/11 07:53:29;;;;;;;11.90;5.23;;;;;;;;;;10284452;28;20029;-86
2023/12/11 07:58:30;;;;;;;13.57;6.17;;;;;;;;;;10282594;28;20113;-87
2023/12/11 08:03:31;;;;;;;15.57;6.27;;;;;;;;;;10284126;28;20074;-84
2023/12/11 08:08:32;;;;;;;11.97;5.60;;;;;;;;;;10277537;28;20035;-84
2023/12/11 08:13:33;;;;;;;13.60;6.23;;;;;;;;;;10283859;28;20039;-83
2023/12/11 08:18:34;;;;;;;11.53;5.63;;;;;;;;;;10276618;28;20058;-86
2023/12/11 08:23:45;;;;;;;14.93;6.77;;;;;;;;;;10266035;28;20600;-84
2023/12/11 08:28:46;;;;;;;16.67;7.83;;;;;;;;;;10283707;28;20043;-84
2023/12/11 08:33:48;;;;;;;10.57;5.43;;;;;;;;;;10284108;28;20403;-84
2023/12/11 08:38:49;;;;;;;14.80;6.60;;;;;;;;;;10284383;28;20582;-84
2023/12/11 08:43:50;;;;;;;11.63;5.97;;;;;;;;;;10281868;28;20058;-84
2023/12/11 08:48:51;;;;;;;14.10;5.40;;;;;;;;;;10291476;28;20070;-84
2023/12/11 08:53:52;;;;;;;11.50;5.40;;;;;;;;;;10289523;28;20705;-84
2023/12/11 08:58:53;;;;;;;10.07;5.33;;;;;;;;;;10292009;28;20049;-84
2023/12/11 09:03:55;;;;;;;8.93;4.90;;;;;;;;;;10290088;28;20149;-84
2023/12/11 09:08:57;;;;;;;10.00;5.47;;;;;;;;;;10270824;28;20042;-84
2023/12/11 09:13:58;;;;;;;12.63;5.43;;;;;;;;;;10286176;28;20489;-83
2023/12/11 09:18:59;;;;;;;11.50;5.53;;;;;;;;;;10288091;28;20621;-84
2023/12/11 09:24:00;;;;;;;12.60;5.50;;;;;;;;;;10285942;28;20630;-85
2023/12/11 09:29:01;;;;;;;12.63;6.50;;;;;;;;;;10272159;28;20042;-85
2023/12/11 09:34:03;;;;;;;12.87;5.70;;;;;;;;;;10290516;28;20084;-83
2023/12/11 09:39:07;;;;;;;14.03;6.00;;;;;;;;;;10273107;28;20038;-84
2023/12/11 09:44:09;;;;;;;15.07;7.17;;;;;;;;;;10290080;28;20042;-84
2023/12/11 09:49:11;;;;;;;13.13;6.23;;;;;;;;;;10277107;28;20077;-85
2023/12/11 09:54:12;;;;;;;13.10;6.70;;;;;;;;;;10289744;28;20118;-83
2023/12/11 09:59:14;;;;;;;14.60;6.67;;;;;;;;;;10289002;28;20038;-83
2023/12/11 10:04:16;;;;;;;13.63;7.20;;;;;;;;;;10289054;28;20475;-84
2023/12/11 10:09:35;;;;;;;12.40;5.90;;;;;;;;;;10289154;28;20142;-84
2023/12/11 10:14:37;;;;;;;14.67;6.57;;;;;;;;;;10288491;28;20054;-82
2023/12/11 10:19:38;;;;;;;14.50;6.13;;;;;;;;;;10288688;28;20074;-84
2023/12/11 10:24:42;;;;;;;14.77;6.43;;;;;;;;;;10289082;28;20077;-81
2023/12/11 10:29:43;;;;;;;11.97;5.87;;;;;;;;;;10275820;28;20039;-80
2023/12/11 10:34:50;;;;;;;14.07;5.90;;;;;;;;;;10286770;28;20066;-81
2023/12/11 10:39:52;;;;;;;10.07;5.40;;;;;;;;;;10287927;28;20485;-82
2023/12/11 10:44:54;;;;;;;12.87;5.90;;;;;;;;;;10288625;28;20452;-84
2023/12/11 10:50:00;;;;;;;12.03;5.40;;;;;;;;;;10288260;28;20126;-83
2023/12/11 10:55:01;;;;;;;10.63;5.87;;;;;;;;;;10286294;28;20371;-82
2023/12/11 11:00:04;;;;;;;12.53;6.00;;;;;;;;;;10286843;28;20031;-82
2023/12/11 11:05:12;;;;;;;12.83;5.57;;;;;;;;;;10286424;28;20039;-82
2023/12/11 11:10:19;;;;;;;11.47;5.60;;;;;;;;;;10284517;28;20390;-83
2023/12/11 11:15:24;;;;;;;8.87;4.97;;;;;;;;;;10286419;28;20027;-82
2023/12/11 11:20:29;;;;;;;17.83;10.30;;;;;;;;;;10267779;28;20046;-85
2023/12/11 11:25:34;;;;;;;11.00;5.33;;;;;;;;;;10285094;28;20391;-82
2023/12/11 11:30:44;;;;;;;10.60;4.70;;;;;;;;;;10282675;28;20047;-84
2023/12/11 11:35:48;;;;;;;10.30;4.73;;;;;;;;;;10283879;28;20720;-81
2023/12/11 11:40:51;;;;;;;11.33;6.27;;;;;;;;;;10276246;28;20030;-81
2023/12/11 11:45:58;;;;;;;11.40;5.63;;;;;;;;;;10279295;28;20027;-82
2023/12/11 11:50:59;;;;;;;12.47;5.23;;;;;;;;;;10285083;28;20041;-80
2023/12/11 11:56:01;;;;;;;14.00;6.13;;;;;;;;;;10285217;28;20042;-82
2023/12/11 12:01:05;;;;;;;9.97;5.03;;;;;;;;;;10263029;28;20034;-82
2023/12/11 12:06:07;;;;;;;9.57;5.00;;;;;;;;;;10285482;28;20125;-82
2023/12/11 12:11:08;;;;;;;10.17;5.03;;;;;;;;;;10285806;28;20080;-81
2023/12/11 12:16:10;;;;;;;9.80;5.53;;;;;;;;;;10284875;28;20574;-81
2023/12/11 12:21:18;;;;;;;10.53;5.53;;;;;;;;;;10287936;28;20081;-83
2023/12/11 12:26:19;;;;;;;10.40;5.43;;;;;;;;;;10292861;28;20042;-82
2023/12/11 12:31:20;;;;;;;13.60;6.03;;;;;;;;;;10292579;28;20115;-83
2023/12/11 12:36:21;;;;;;;9.23;4.97;;;;;;;;;;10292828;28;20058;-82
2023/12/11 12:41:22;;;;;;;14.57;5.93;;;;;;;;;;10292724;28;20596;-82
2023/12/11 12:46:26;;;;;;;13.83;5.50;;;;;;;;;;10292527;28;20170;-83
2023/12/11 12:51:27;;;;;;;9.53;5.00;;;;;;;;;;10292378;28;20062;-81
2023/12/11 12:56:28;;;;;;;11.07;4.97;;;;;;;;;;10275710;28;20113;-82
2023/12/11 13:01:36;;;;;;;9.33;4.97;;;;;;;;;;10294212;28;20525;-83
2023/12/11 13:06:38;;;;;;;11.23;5.23;;;;;;;;;;10292651;28;20085;-82
2023/12/11 13:11:39;;;;;;;10.83;5.37;;;;;;;;;;10292251;28;20027;-83
2023/12/11 13:16:43;;;;;;;10.50;4.87;;;;;;;;;;10291351;28;20038;-82
2023/12/11 13:21:44;;;;;;;10.27;5.43;;;;;;;;;;10290267;28;20094;-81
2023/12/11 13:26:45;;;;;;;16.30;5.90;;;;;;;;;;10290750;28;20406;-81
2023/12/11 13:31:47;;;;;;;12.60;6.23;;;;;;;;;;10289558;28;20094;-82
2023/12/11 13:36:48;;;;;;;12.73;6.57;;;;;;;;;;10279740;28;20980;-82
2023/12/11 13:41:49;;;;;;;11.70;5.63;;;;;;;;;;10290299;28;20089;-82
2023/12/11 13:46:50;;;;;;;9.50;4.90;;;;;;;;;;10273107;28;20410;-82
2023/12/11 13:51:51;;;;;;;12.27;5.97;;;;;;;;;;10288438;28;20121;-81
2023/12/11 13:56:52;;;;;;;16.77;6.63;;;;;;;;;;10289889;28;20113;-81
2023/12/11 14:01:56;;;;;;;13.87;6.83;;;;;;;;;;10289907;28;20129;-80
2023/12/11 14:06:57;;;;;;;12.33;6.77;;;;;;;;;;10289553;28;20105;-80
2023/12/11 14:12:00;;;;;;;13.20;7.07;;;;;;;;;;10288886;28;20058;-81
2023/12/11 14:17:02;;;;;;;13.63;7.30;;;;;;;;;;10288422;28;20038;-82
2023/12/11 14:22:03;;;;;;;14.47;7.00;;;;;;;;;;10271093;28;20789;-80
2023/12/11 14:27:04;;;;;;;18.53;8.30;;;;;;;;;;10288063;28;20035;-82
2023/12/11 14:32:12;;;;;;;15.43;7.33;;;;;;;;;;10288554;28;20125;-81
2023/12/11 14:37:13;;;;;;;22.10;9.83;;;;;;;;;;10288346;28;20035;-81
2023/12/11 14:42:14;;;;;;;17.90;9.37;;;;;;;;;;10286961;28;20030;-80
2023/12/11 14:47:16;;;;;;;15.47;8.43;;;;;;;;;;10280837;28;20046;-82
2023/12/11 14:52:17;;;;;;;14.93;8.03;;;;;;;;;;10293663;28;20081;-82
2023/12/11 14:57:18;;;;;;;16.67;8.30;;;;;;;;;;10295341;28;20121;-81
2023/12/11 15:02:20;;;;;;;16.80;8.20;;;;;;;;;;10288031;28;20034;-80
2023/12/11 15:07:21;;;;;;;15.53;8.90;;;;;;;;;;10275003;28;20681;-83
2023/12/11 15:12:22;;;;;;;20.10;9.57;;;;;;;;;;10286193;28;20110;-80
2023/12/11 15:17:24;;;;;;;21.67;9.67;;;;;;;;;;10296527;28;20121;-80
2023/12/11 15:22:27;;;;;;;21.13;9.50;;;;;;;;;;10287080;28;20205;-77
2023/12/11 15:27:29;;;;;;;16.67;9.60;;;;;;;;;;10277913;28;20077;-84
2023/12/11 15:32:30;;;;;;;17.63;9.57;;;;;;;;;;10290230;28;20368;-82
2023/12/11 15:37:31;;;;;;;22.07;11.93;;;;;;;;;;10286442;28;20027;-79
2023/12/11 15:42:35;;;;;;;23.37;11.90;;;;;;;;;;10290344;28;20391;-80
2023/12/11 15:47:37;;;;;;;22.67;11.77;;;;;;;;;;10295106;28;20039;-81
2023/12/11 15:52:38;;;;;;;24.00;12.30;;;;;;;;;;10285531;28;20126;-81
2023/12/11 15:57:39;;;;;;;18.80;10.70;;;;;;;;;;10293095;28;20046;-82
2023/12/11 16:02:40;;;;;;;19.37;10.70;;;;;;;;;;10294816;28;20045;-82
2023/12/11 16:07:41;;;;;;;20.70;11.03;;;;;;;;;;10287659;28;20090;-82
2023/12/11 16:12:42;;;;;;;23.53;11.87;;;;;;;;;;10299053;28;20118;-84
2023/12/11 16:17:43;;;;;;;25.80;12.10;;;;;;;;;;10279549;28;20192;-82
2023/12/11 16:22:44;;;;;;;28.87;12.43;;;;;;;;;;10293149;28;20541;-83
2023/12/11 16:27:46;;;;;;;28.90;13.13;;;;;;;;;;10285526;28;20082;-82
2023/12/11 16:32:47;;;;;;;31.93;13.90;;;;;;;;;;10273513;28;20045;-82
2023/12/11 16:37:48;;;;;;;33.17;15.23;;;;;;;;;;10293042;28;20175;-80
2023/12/11 16:42:49;;;;;;;28.67;13.43;;;;;;;;;;10316137;28;20405;-81
2023/12/11 16:47:53;;;;;;;30.57;14.83;;;;;;;;;;10296848;28;20134;-80
2023/12/11 16:52:55;;;;;;;38.17;17.37;;;;;;;;;;10274272;28;20054;-80
2023/12/11 16:57:56;;;;;;;34.77;16.87;;;;;;;;;;10293125;28;20042;-83
2023/12/11 17:03:05;;;;;;;31.67;13.97;;;;;;;;;;10299403;28;20113;-83
2023/12/11 17:08:06;;;;;;;33.70;15.10;;;;;;;;;;10296836;28;20043;-80
2023/12/11 17:13:07;;;;;;;24.60;11.77;;;;;;;;;;10298027;28;20077;-79
2023/12/11 17:18:08;;;;;;;22.80;11.00;;;;;;;;;;10294831;28;20121;-81
2023/12/11 17:23:10;;;;;;;25.03;11.23;;;;;;;;;;10302124;28;20150;-79
2023/12/11 17:28:11;;;;;;;20.27;10.00;;;;;;;;;;10302684;28;20137;-81
2023/12/11 17:33:13;;;;;;;20.90;10.00;;;;;;;;;;10294775;28;20030;-81
2023/12/11 17:38:14;;;;;;;23.77;11.43;;;;;;;;;;10297650;28;20522;-83
2023/12/11 17:43:15;;;;;;;20.80;10.20;;;;;;;;;;10297506;28;20070;-81
2023/12/11 17:48:16;;;;;;;21.87;10.57;;;;;;;;;;10295350;28;20169;-80
2023/12/11 17:53:17;;;;;;;23.97;11.40;;;;;;;;;;10296023;28;20025;-82
2023/12/11 17:58:19;;;;;;;21.87;10.97;;;;;;;;;;10285119;28;20394;-83
2023/12/11 18:03:20;;;;;;;22.30;11.00;;;;;;;;;;10299077;28;20114;-82
2023/12/11 18:08:21;;;;;;;27.50;11.77;;;;;;;;;;10301548;28;20044;-83
2023/12/11 18:13:22;;;;;;;25.43;11.13;;;;;;;;;;10289634;28;20125;-81
2023/12/11 18:18:23;;;;;;;21.87;10.33;;;;;;;;;;10303242;28;20035;-81
2023/12/11 18:23:24;;;;;;;22.43;10.57;;;;;;;;;;10292607;28;20482;-83
2023/12/11 18:28:25;;;;;;;19.83;9.93;;;;;;;;;;10287595;28;20122;-82
2023/12/11 18:33:26;;;;;;;19.37;10.20;;;;;;;;;;10303004;28;20038;-82
2023/12/11 18:38:28;;;;;;;37.40;18.73;;;;;;;;;;10292132;28;20101;-83
2023/12/11 18:43:29;;;;;;;19.50;10.07;;;;;;;;;;10297500;28;20045;-87
2023/12/11 18:48:30;;;;;;;21.17;9.83;;;;;;;;;;10275019;28;20042;-83
2023/12/11 18:53:31;;;;;;;16.03;9.07;;;;;;;;;;10274903;28;20491;-82
2023/12/11 18:58:38;;;;;;;17.03;9.07;;;;;;;;;;10280490;28;20114;-82
2023/12/11 19:03:39;;;;;;;20.50;10.10;;;;;;;;;;10308043;28;20039;-86
2023/12/11 19:08:40;;;;;;;19.80;8.87;;;;;;;;;;10291381;28;20049;-84
2023/12/11 19:13:42;;;;;;;14.73;8.30;;;;;;;;;;10280425;28;20174;-83
2023/12/11 19:18:43;;;;;;;19.27;9.07;;;;;;;;;;10290843;28;20030;-85
2023/12/11 19:23:44;;;;;;;18.10;9.27;;;;;;;;;;10300724;28;20222;-84
2023/12/11 19:28:45;;;;;;;20.60;9.80;;;;;;;;;;10300228;28;20495;-82
2023/12/11 19:33:46;;;;;;;19.97;11.70;;;;;;;;;;10300383;28;20051;-82
2023/12/11 19:38:47;;;;;;;21.93;9.40;;;;;;;;;;10292865;28;20102;-83
2023/12/11 19:43:48;;;;;;;20.57;10.90;;;;;;;;;;10296361;28;20813;-83
2023/12/11 19:48:49;;;;;;;18.13;9.73;;;;;;;;;;10305745;28;20038;-83
2023/12/11 19:53:50;;;;;;;17.03;9.10;;;;;;;;;;10270585;28;20039;-80
2023/12/11 19:58:52;;;;;;;19.03;9.60;;;;;;;;;;10279160;28;20043;-81
2023/12/11 20:03:53;;;;;;;21.27;10.83;;;;;;;;;;10308924;28;20031;-83
2023/12/11 20:08:54;;;;;;;21.90;11.47;;;;;;;;;;10297176;28;20061;-83
2023/12/11 20:13:55;;;;;;;23.80;12.67;;;;;;;;;;10284667;28;20042;-83
2023/12/11 20:18:56;;;;;;;33.20;15.23;;;;;;;;;;10295232;28;20042;-83
2023/12/11 20:23:57;;;;;;;27.37;13.40;;;;;;;;;;10304957;28;20085;-83
2023/12/11 20:29:05;;;;;;;26.90;13.43;;;;;;;;;;10298506;28;20066;-83
2023/12/11 20:34:06;;;;;;;26.30;13.63;;;;;;;;;;10299494;28;20035;-81
2023/12/11 20:39:08;;;;;;;27.30;14.37;;;;;;;;;;10285516;28;20026;-81
2023/12/11 20:44:09;;;;;;;38.73;17.90;;;;;;;;;;10273489;28;20031;-82
2023/12/11 20:49:17;;;;;;;40.30;18.90;;;;;;;;;;10279278;28;20137;-82
2023/12/11 20:54:18;;;;;;;39.23;17.97;;;;;;;;;;10292054;28;20126;-82
2023/12/11 20:59:19;;;;;;;30.77;16.73;;;;;;;;;;10291198;28;20086;-83
2023/12/11 21:04:21;;;;;;;33.90;16.90;;;;;;;;;;10300370;28;20031;-83
2023/12/11 21:09:22;;;;;;;29.43;15.87;;;;;;;;;;10282859;28;20043;-82
2023/12/11 21:14:23;;;;;;;36.47;17.23;;;;;;;;;;10301025;28;20027;-82
2023/12/11 21:19:24;;;;;;;30.93;16.63;;;;;;;;;;10295876;28;20078;-82
2023/12/11 21:24:25;;;;;;;28.27;16.37;;;;;;;;;;10290894;28;20094;-82
2023/12/11 21:29:26;;;;;;;30.60;15.43;;;;;;;;;;10284933;28;20089;-81
2023/12/11 21:34:27;;;;;;;38.13;18.67;;;;;;;;;;10296625;28;20118;-82
2023/12/11 21:39:28;;;;;;;29.30;15.80;;;;;;;;;;10291288;28;20038;-83
2023/12/11 21:44:29;;;;;;;31.00;16.73;;;;;;;;;;10273278;28;20062;-82
2023/12/11 21:49:30;;;;;;;29.13;17.00;;;;;;;;;;10297336;28;20066;-82
2023/12/11 21:54:31;;;;;;;29.53;15.40;;;;;;;;;;10289567;28;20077;-82
2023/12/11 21:59:32;;;;;;;29.13;16.67;;;;;;;;;;10290749;28;20114;-83
2023/12/11 22:04:33;;;;;;;32.47;18.17;;;;;;;;;;10267207;28;20141;-84
2023/12/11 22:09:34;;;;;;;36.43;20.67;;;;;;;;;;10279490;28;20141;-84
2023/12/11 22:14:35;;;;;;;33.93;20.30;;;;;;;;;;10296948;28;20030;-83
2023/12/11 22:19:37;;;;;;;38.40;21.67;;;;;;;;;;10290038;28;20093;-84
2023/12/11 22:24:46;;;;;;;40.27;21.63;;;;;;;;;;10289253;28;20099;-84
2023/12/11 22:29:47;;;;;;;34.83;20.63;;;;;;;;;;10298291;28;20046;-84
2023/12/11 22:34:48;;;;;;;36.70;20.47;;;;;;;;;;10296732;28;20161;-83
2023/12/11 22:39:49;;;;;;;39.20;22.30;;;;;;;;;;10280766;28;20038;-84
2023/12/11 22:44:50;;;;;;;39.63;22.50;;;;;;;;;;10304256;28;20077;-83
2023/12/11 22:49:51;;;;;;;39.13;22.03;;;;;;;;;;10280630;28;20126;-83
2023/12/11 22:54:52;;;;;;;36.27;21.60;;;;;;;;;;10288654;28;20387;-82
2023/12/11 22:59:54;;;;;;;42.97;23.67;;;;;;;;;;10291571;28;20034;-83
2023/12/11 23:04:56;;;;;;;42.57;23.60;;;;;;;;;;10277798;28;20564;-83
2023/12/11 23:09:57;;;;;;;39.33;22.67;;;;;;;;;;10286494;28;20395;-83
2023/12/11 23:14:58;;;;;;;45.73;24.90;;;;;;;;;;10287578;28;20514;-84
2023/12/11 23:19:59;;;;;;;46.97;24.03;;;;;;;;;;10286466;28;20130;-83
2023/12/11 23:25:00;;;;;;;44.70;23.63;;;;;;;;;;10303603;28;20141;-84
2023/12/11 23:30:02;;;;;;;48.43;22.67;;;;;;;;;;10288948;28;20127;-83
2023/12/11 23:35:03;;;;;;;40.77;23.80;;;;;;;;;;10287975;28;20034;-83
2023/12/11 23:40:04;;;;;;;44.23;22.53;;;;;;;;;;10270315;28;20034;-84
2023/12/11 23:45:06;;;;;;;36.90;19.47;;;;;;;;;;10295331;28;20182;-83
2023/12/11 23:50:07;;;;;;;40.57;21.13;;;;;;;;;;10285820;28;20490;-82
2023/12/11 23:55:08;;;;;;;35.00;20.73;;;;;;;;;;10286722;28;20386;-85
